sensor_id;sensor_type;location;lat;lon;timestamp;pressure;altitude;pressure_sealevel;temperature;humidity
67740;BME280;54536;50.090;14.420;2023-02-02T00:01:59;99153.84;;;6.62;53.37
67740;BME280;54536;50.090;14.420;2023-02-02T00:04:33;99165.47;;;6.69;52.61
67740;BME280;54536;50.090;14.420;2023-02-02T00:07:01;99164.19;;;6.75;52.81
67740;BME280;54536;50.090;14.420;2023-02-02T00:09:31;99170.47;;;6.72;52.46
67740;BME280;54536;50.090;14.420;2023-02-02T00:11:59;99160.97;;;6.71;52.38
67740;BME280;54536;50.090;14.420;2023-02-02T00:14:25;99174.28;;;6.79;52.99
67740;BME280;54536;50.090;14.420;2023-02-02T00:16:53;99168.81;;;6.71;52.71
67740;BME280;54536;50.090;14.420;2023-02-02T00:19:23;99172.38;;;6.82;52.36
67740;BME280;54536;50.090;14.420;2023-02-02T00:21:52;99175.09;;;6.80;52.39
67740;BME280;54536;50.090;14.420;2023-02-02T00:24:19;99178.91;;;6.76;52.37
67740;BME280;54536;50.090;14.420;2023-02-02T00:26:49;99165.84;;;6.76;52.19
67740;BME280;54536;50.090;14.420;2023-02-02T00:29:22;99170.25;;;6.64;52.12
67740;BME280;54536;50.090;14.420;2023-02-02T00:31:49;99171.31;;;6.62;52.11
67740;BME280;54536;50.090;14.420;2023-02-02T00:34:16;99175.00;;;6.70;52.45
67740;BME280;54536;50.090;14.420;2023-02-02T00:36:44;99174.41;;;6.78;52.40
67740;BME280;54536;50.090;14.420;2023-02-02T00:39:14;99178.22;;;6.74;51.80
67740;BME280;54536;50.090;14.420;2023-02-02T00:41:41;99175.69;;;6.72;52.26
67740;BME280;54536;50.090;14.420;2023-02-02T00:44:07;99180.59;;;6.77;51.61
67740;BME280;54536;50.090;14.420;2023-02-02T00:46:52;99180.22;;;6.70;51.83
67740;BME280;54536;50.090;14.420;2023-02-02T00:49:18;99187.84;;;6.85;52.08
67740;BME280;54536;50.090;14.420;2023-02-02T00:51:44;99193.66;;;6.99;51.69
67740;BME280;54536;50.090;14.420;2023-02-02T00:54:10;99189.97;;;6.91;51.15
67740;BME280;54536;50.090;14.420;2023-02-02T00:56:36;99188.31;;;6.90;51.23
67740;BME280;54536;50.090;14.420;2023-02-02T00:59:02;99187.13;;;6.94;51.06
67740;BME280;54536;50.090;14.420;2023-02-02T01:01:29;99187.50;;;7.00;51.14
67740;BME280;54536;50.090;14.420;2023-02-02T01:03:55;99186.66;;;7.00;51.27
67740;BME280;54536;50.090;14.420;2023-02-02T01:06:21;99187.50;;;7.00;50.99
67740;BME280;54536;50.090;14.420;2023-02-02T01:08:47;99182.00;;;6.92;50.96
67740;BME280;54536;50.090;14.420;2023-02-02T01:11:14;99176.91;;;6.91;50.77
67740;BME280;54536;50.090;14.420;2023-02-02T01:13:41;99173.94;;;6.95;50.93
67740;BME280;54536;50.090;14.420;2023-02-02T01:16:08;99181.66;;;7.08;50.56
67740;BME280;54536;50.090;14.420;2023-02-02T01:18:35;99181.53;;;6.98;50.40
67740;BME280;54536;50.090;14.420;2023-02-02T01:21:05;99185.09;;;7.09;49.70
67740;BME280;54536;50.090;14.420;2023-02-02T01:23:32;99180.47;;;7.01;50.49
67740;BME280;54536;50.090;14.420;2023-02-02T01:26:01;99178.56;;;7.14;49.29
67740;BME280;54536;50.090;14.420;2023-02-02T01:28:28;99177.97;;;7.22;49.87
67740;BME280;54536;50.090;14.420;2023-02-02T01:30:55;99184.63;;;7.26;49.41
67740;BME280;54536;50.090;14.420;2023-02-02T01:33:22;99182.72;;;7.28;49.49
67740;BME280;54536;50.090;14.420;2023-02-02T01:35:54;99182.38;;;7.33;49.56
67740;BME280;54536;50.090;14.420;2023-02-02T01:38:22;99177.97;;;7.33;49.62
67740;BME280;54536;50.090;14.420;2023-02-02T01:40:54;99178.78;;;7.34;49.08
67740;BME280;54536;50.090;14.420;2023-02-02T01:43:26;99178.22;;;7.30;48.87
67740;BME280;54536;50.090;14.420;2023-02-02T01:45:56;99188.19;;;7.25;49.35
67740;BME280;54536;50.090;14.420;2023-02-02T01:48:30;99186.19;;;7.17;49.52
67740;BME280;54536;50.090;14.420;2023-02-02T01:51:01;99192.13;;;7.19;49.41
67740;BME280;54536;50.090;14.420;2023-02-02T01:53:29;99188.41;;;7.22;49.86
67740;BME280;54536;50.090;14.420;2023-02-02T01:55:56;99185.69;;;7.12;49.22
67740;BME280;54536;50.090;14.420;2023-02-02T01:58:29;99188.91;;;7.16;49.28
67740;BME280;54536;50.090;14.420;2023-02-02T02:00:56;99194.97;;;7.16;49.61
67740;BME280;54536;50.090;14.420;2023-02-02T02:03:28;99197.47;;;7.18;49.74
67740;BME280;54536;50.090;14.420;2023-02-02T02:06:03;99192.84;;;7.10;48.88
67740;BME280;54536;50.090;14.420;2023-02-02T02:08:36;99197.69;;;7.15;50.07
67740;BME280;54536;50.090;14.420;2023-02-02T02:11:04;99193.91;;;7.08;50.07
67740;BME280;54536;50.090;14.420;2023-02-02T02:13:34;99196.75;;;7.16;49.50
67740;BME280;54536;50.090;14.420;2023-02-02T02:25:19;99188.66;;;7.30;50.16
67740;BME280;54536;50.090;14.420;2023-02-02T02:42:48;99181.16;;;7.25;49.92
67740;BME280;54536;50.090;14.420;2023-02-02T02:45:17;99181.53;;;7.21;50.19
67740;BME280;54536;50.090;14.420;2023-02-02T02:47:44;99173.81;;;7.19;51.00
67740;BME280;54536;50.090;14.420;2023-02-02T02:50:11;99178.22;;;7.08;50.66
67740;BME280;54536;50.090;14.420;2023-02-02T02:52:39;99175.25;;;7.23;50.48
67740;BME280;54536;50.090;14.420;2023-02-02T02:55:09;99179.03;;;7.08;49.90
67740;BME280;54536;50.090;14.420;2023-02-02T03:03:31;99169.66;;;7.06;50.20
67740;BME280;54536;50.090;14.420;2023-02-02T03:09:00;99170.03;;;7.01;49.21
67740;BME280;54536;50.090;14.420;2023-02-02T03:11:28;99169.06;;;7.02;49.35
67740;BME280;54536;50.090;14.420;2023-02-02T03:13:55;99168.47;;;6.87;48.84
67740;BME280;54536;50.090;14.420;2023-02-02T03:16:22;99168.94;;;6.92;49.06
67740;BME280;54536;50.090;14.420;2023-02-02T03:18:48;99175.84;;;6.93;48.45
67740;BME280;54536;50.090;14.420;2023-02-02T03:21:14;99163.97;;;7.00;48.64
67740;BME280;54536;50.090;14.420;2023-02-02T03:23:40;99178.47;;;6.93;48.20
67740;BME280;54536;50.090;14.420;2023-02-02T03:26:07;99182.03;;;6.81;48.10
67740;BME280;54536;50.090;14.420;2023-02-02T03:28:33;99186.41;;;6.92;48.68
67740;BME280;54536;50.090;14.420;2023-02-02T03:31:00;99184.16;;;6.98;47.80
67740;BME280;54536;50.090;14.420;2023-02-02T03:33:27;99177.97;;;7.11;48.44
67740;BME280;54536;50.090;14.420;2023-02-02T03:35:54;99184.28;;;7.08;48.05
67740;BME280;54536;50.090;14.420;2023-02-02T03:38:20;99185.81;;;6.99;48.58
67740;BME280;54536;50.090;14.420;2023-02-02T03:40:47;99191.63;;;6.92;49.05
67740;BME280;54536;50.090;14.420;2023-02-02T03:43:19;99183.78;;;6.92;49.22
67740;BME280;54536;50.090;14.420;2023-02-02T03:45:45;99184.88;;;6.78;48.81
67740;BME280;54536;50.090;14.420;2023-02-02T03:48:11;99177.97;;;6.88;48.36
67740;BME280;54536;50.090;14.420;2023-02-02T03:50:37;99182.84;;;6.93;48.64
67740;BME280;54536;50.090;14.420;2023-02-02T03:53:03;99184.84;;;6.89;48.77
67740;BME280;54536;50.090;14.420;2023-02-02T03:55:30;99179.28;;;6.83;48.61
67740;BME280;54536;50.090;14.420;2023-02-02T03:57:56;99195.19;;;6.68;48.33
67740;BME280;54536;50.090;14.420;2023-02-02T04:00:22;99187.81;;;6.73;48.62
67740;BME280;54536;50.090;14.420;2023-02-02T04:02:48;99189.84;;;6.81;48.16
67740;BME280;54536;50.090;14.420;2023-02-02T04:05:15;99194.25;;;6.92;47.89
67740;BME280;54536;50.090;14.420;2023-02-02T04:07:41;99195.41;;;6.76;48.01
67740;BME280;54536;50.090;14.420;2023-02-02T04:10:07;99192.69;;;6.78;48.05
67740;BME280;54536;50.090;14.420;2023-02-02T04:12:34;99202.06;;;6.69;48.67
67740;BME280;54536;50.090;14.420;2023-02-02T04:15:00;99197.34;;;6.74;48.55
67740;BME280;54536;50.090;14.420;2023-02-02T04:17:26;99200.41;;;6.68;48.42
67740;BME280;54536;50.090;14.420;2023-02-02T04:19:52;99204.13;;;6.77;48.90
67740;BME280;54536;50.090;14.420;2023-02-02T04:22:23;99192.69;;;6.89;47.94
67740;BME280;54536;50.090;14.420;2023-02-02T04:24:50;99195.66;;;6.73;47.73
67740;BME280;54536;50.090;14.420;2023-02-02T04:27:16;99205.88;;;6.76;47.68
67740;BME280;54536;50.090;14.420;2023-02-02T04:29:42;99198.75;;;6.78;47.90
67740;BME280;54536;50.090;14.420;2023-02-02T04:32:08;99203.84;;;6.80;48.43
67740;BME280;54536;50.090;14.420;2023-02-02T04:34:34;99217.78;;;6.80;48.03
67740;BME280;54536;50.090;14.420;2023-02-02T04:37:01;99214.94;;;6.84;47.97
67740;BME280;54536;50.090;14.420;2023-02-02T04:39:27;99209.81;;;6.71;47.82
67740;BME280;54536;50.090;14.420;2023-02-02T04:41:53;99223.59;;;6.84;47.75
67740;BME280;54536;50.090;14.420;2023-02-02T04:44:19;99220.16;;;6.95;47.08
67740;BME280;54536;50.090;14.420;2023-02-02T04:46:45;99226.06;;;6.86;47.50
67740;BME280;54536;50.090;14.420;2023-02-02T04:49:12;99225.16;;;6.98;46.95
67740;BME280;54536;50.090;14.420;2023-02-02T04:51:38;99229.91;;;7.04;47.97
67740;BME280;54536;50.090;14.420;2023-02-02T04:54:06;99237.03;;;7.02;47.15
67740;BME280;54536;50.090;14.420;2023-02-02T04:56:33;99230.59;;;7.06;47.20
67740;BME280;54536;50.090;14.420;2023-02-02T04:59:00;99232.72;;;6.90;46.87
67740;BME280;54536;50.090;14.420;2023-02-02T05:01:26;99241.91;;;6.95;46.68
67740;BME280;54536;50.090;14.420;2023-02-02T05:03:52;99237.50;;;6.96;46.83
67740;BME280;54536;50.090;14.420;2023-02-02T05:06:18;99235.16;;;7.04;47.35
67740;BME280;54536;50.090;14.420;2023-02-02T05:08:46;99245.72;;;7.14;46.87
67740;BME280;54536;50.090;14.420;2023-02-02T05:11:17;99244.16;;;7.11;46.78
67740;BME280;54536;50.090;14.420;2023-02-02T05:13:45;99252.13;;;6.98;46.73
67740;BME280;54536;50.090;14.420;2023-02-02T05:16:12;99253.81;;;7.11;46.54
67740;BME280;54536;50.090;14.420;2023-02-02T05:18:40;99245.81;;;7.12;46.12
67740;BME280;54536;50.090;14.420;2023-02-02T05:21:06;99252.16;;;7.10;46.45
67740;BME280;54536;50.090;14.420;2023-02-02T05:23:32;99268.66;;;7.10;47.03
67740;BME280;54536;50.090;14.420;2023-02-02T05:25:58;99271.88;;;7.14;46.96
67740;BME280;54536;50.090;14.420;2023-02-02T05:28:24;99266.41;;;7.17;46.89
67740;BME280;54536;50.090;14.420;2023-02-02T05:30:51;99271.03;;;7.13;46.71
67740;BME280;54536;50.090;14.420;2023-02-02T05:33:17;99265.91;;;7.12;46.63
67740;BME280;54536;50.090;14.420;2023-02-02T05:35:45;99276.28;;;7.13;46.59
67740;BME280;54536;50.090;14.420;2023-02-02T05:38:12;99267.84;;;7.10;46.84
67740;BME280;54536;50.090;14.420;2023-02-02T05:40:38;99279.34;;;7.18;47.22
67740;BME280;54536;50.090;14.420;2023-02-02T05:43:04;99291.59;;;7.18;46.38
67740;BME280;54536;50.090;14.420;2023-02-02T05:45:30;99292.56;;;7.17;47.62
67740;BME280;54536;50.090;14.420;2023-02-02T05:47:58;99293.72;;;7.13;46.99
67740;BME280;54536;50.090;14.420;2023-02-02T05:50:24;99294.56;;;7.24;47.17
67740;BME280;54536;50.090;14.420;2023-02-02T05:52:51;99299.44;;;7.07;46.57
67740;BME280;54536;50.090;14.420;2023-02-02T05:55:17;99300.75;;;7.23;46.50
67740;BME280;54536;50.090;14.420;2023-02-02T05:57:45;99305.03;;;7.24;46.38
67740;BME280;54536;50.090;14.420;2023-02-02T06:00:11;99300.16;;;7.31;46.38
67740;BME280;54536;50.090;14.420;2023-02-02T06:02:37;99306.13;;;7.33;46.57
67740;BME280;54536;50.090;14.420;2023-02-02T06:05:04;99313.59;;;7.26;46.79
67740;BME280;54536;50.090;14.420;2023-02-02T06:07:30;99307.19;;;7.31;46.62
67740;BME280;54536;50.090;14.420;2023-02-02T06:09:56;99306.81;;;7.35;47.16
67740;BME280;54536;50.090;14.420;2023-02-02T06:12:23;99308.75;;;7.33;46.86
67740;BME280;54536;50.090;14.420;2023-02-02T06:14:49;99311.47;;;7.43;47.21
67740;BME280;54536;50.090;14.420;2023-02-02T06:17:15;99321.31;;;7.28;46.99
67740;BME280;54536;50.090;14.420;2023-02-02T06:19:41;99326.81;;;7.36;47.58
67740;BME280;54536;50.090;14.420;2023-02-02T06:22:07;99318.97;;;7.36;47.21
67740;BME280;54536;50.090;14.420;2023-02-02T06:24:33;99321.31;;;7.28;47.83
67740;BME280;54536;50.090;14.420;2023-02-02T06:26:59;99332.97;;;7.35;48.10
67740;BME280;54536;50.090;14.420;2023-02-02T06:29:25;99327.97;;;7.32;47.59
67740;BME280;54536;50.090;14.420;2023-02-02T06:31:52;99328.59;;;7.47;47.31
67740;BME280;54536;50.090;14.420;2023-02-02T06:34:17;99332.66;;;7.40;47.47
67740;BME280;54536;50.090;14.420;2023-02-02T06:36:44;99346.53;;;7.51;47.56
67740;BME280;54536;50.090;14.420;2023-02-02T06:39:10;99331.44;;;7.33;47.23
67740;BME280;54536;50.090;14.420;2023-02-02T06:41:36;99337.03;;;7.50;47.91
67740;BME280;54536;50.090;14.420;2023-02-02T06:44:02;99343.94;;;7.51;47.53
67740;BME280;54536;50.090;14.420;2023-02-02T06:46:29;99355.84;;;7.56;47.52
67740;BME280;54536;50.090;14.420;2023-02-02T06:48:55;99352.03;;;7.60;47.81
67740;BME280;54536;50.090;14.420;2023-02-02T06:51:21;99355.94;;;7.54;47.63
67740;BME280;54536;50.090;14.420;2023-02-02T06:53:48;99355.13;;;7.65;47.55
67740;BME280;54536;50.090;14.420;2023-02-02T06:56:15;99366.53;;;7.53;47.82
67740;BME280;54536;50.090;14.420;2023-02-02T06:58:41;99374.97;;;7.45;48.16
67740;BME280;54536;50.090;14.420;2023-02-02T07:01:10;99379.13;;;7.47;48.00
67740;BME280;54536;50.090;14.420;2023-02-02T07:03:37;99375.22;;;7.53;48.53
67740;BME280;54536;50.090;14.420;2023-02-02T07:06:20;99376.19;;;7.52;48.08
67740;BME280;54536;50.090;14.420;2023-02-02T07:08:48;99381.16;;;7.55;47.92
67740;BME280;54536;50.090;14.420;2023-02-02T07:11:16;99380.22;;;7.56;47.93
67740;BME280;54536;50.090;14.420;2023-02-02T07:13:47;99380.00;;;7.59;48.12
67740;BME280;54536;50.090;14.420;2023-02-02T07:16:16;99385.47;;;7.67;49.00
67740;BME280;54536;50.090;14.420;2023-02-02T07:18:43;99387.25;;;7.56;48.05
67740;BME280;54536;50.090;14.420;2023-02-02T07:21:18;99385.00;;;7.62;48.07
67740;BME280;54536;50.090;14.420;2023-02-02T07:23:45;99389.97;;;7.54;48.00
67740;BME280;54536;50.090;14.420;2023-02-02T07:26:13;99389.63;;;7.59;48.10
67740;BME280;54536;50.090;14.420;2023-02-02T07:28:39;99387.34;;;7.54;48.25
67740;BME280;54536;50.090;14.420;2023-02-02T07:31:20;99395.94;;;7.56;48.69
67740;BME280;54536;50.090;14.420;2023-02-02T07:33:47;99391.75;;;7.54;48.92
67740;BME280;54536;50.090;14.420;2023-02-02T07:36:16;99395.78;;;7.58;48.52
67740;BME280;54536;50.090;14.420;2023-02-02T07:38:45;99398.53;;;7.56;48.63
67740;BME280;54536;50.090;14.420;2023-02-02T07:41:12;99405.91;;;7.51;48.67
67740;BME280;54536;50.090;14.420;2023-02-02T07:43:38;99396.28;;;7.63;48.21
67740;BME280;54536;50.090;14.420;2023-02-02T07:46:07;99388.06;;;7.56;48.58
67740;BME280;54536;50.090;14.420;2023-02-02T07:48:35;99400.94;;;7.59;48.52
67740;BME280;54536;50.090;14.420;2023-02-02T07:51:06;99392.25;;;7.59;47.99
67740;BME280;54536;50.090;14.420;2023-02-02T07:53:33;99407.00;;;7.71;48.27
67740;BME280;54536;50.090;14.420;2023-02-02T07:56:21;99404.63;;;7.79;48.30
67740;BME280;54536;50.090;14.420;2023-02-02T07:58:50;99405.31;;;7.81;48.27
67740;BME280;54536;50.090;14.420;2023-02-02T08:01:17;99408.53;;;7.73;47.57
67740;BME280;54536;50.090;14.420;2023-02-02T08:03:45;99411.03;;;7.97;47.52
67740;BME280;54536;50.090;14.420;2023-02-02T08:06:16;99407.38;;;7.89;47.66
67740;BME280;54536;50.090;14.420;2023-02-02T08:08:43;99406.53;;;7.88;47.44
67740;BME280;54536;50.090;14.420;2023-02-02T08:11:11;99407.25;;;7.90;48.43
67740;BME280;54536;50.090;14.420;2023-02-02T08:13:39;99409.63;;;7.93;48.85
67740;BME280;54536;50.090;14.420;2023-02-02T08:16:06;99409.88;;;8.02;48.28
67740;BME280;54536;50.090;14.420;2023-02-02T08:18:34;99419.38;;;8.03;47.72
67740;BME280;54536;50.090;14.420;2023-02-02T08:21:02;99428.06;;;8.03;49.34
67740;BME280;54536;50.090;14.420;2023-02-02T08:23:29;99420.22;;;7.92;47.71
67740;BME280;54536;50.090;14.420;2023-02-02T08:28:38;99439.97;;;7.85;47.86
67740;BME280;54536;50.090;14.420;2023-02-02T08:31:10;99437.97;;;7.88;49.25
67740;BME280;54536;50.090;14.420;2023-02-02T08:33:37;99445.44;;;7.93;48.04
67740;BME280;54536;50.090;14.420;2023-02-02T08:36:04;99445.56;;;7.91;47.87
67740;BME280;54536;50.090;14.420;2023-02-02T08:38:30;99456.19;;;8.01;48.36
67740;BME280;54536;50.090;14.420;2023-02-02T08:41:03;99458.53;;;8.04;49.16
67740;BME280;54536;50.090;14.420;2023-02-02T08:43:30;99457.00;;;8.02;48.04
67740;BME280;54536;50.090;14.420;2023-02-02T08:45:56;99456.16;;;7.90;48.29
67740;BME280;54536;50.090;14.420;2023-02-02T08:48:22;99461.97;;;7.93;48.86
67740;BME280;54536;50.090;14.420;2023-02-02T08:50:55;99454.84;;;7.95;48.85
67740;BME280;54536;50.090;14.420;2023-02-02T08:53:23;99457.22;;;8.10;48.42
67740;BME280;54536;50.090;14.420;2023-02-02T08:56:05;99452.97;;;8.09;48.26
67740;BME280;54536;50.090;14.420;2023-02-02T08:58:33;99458.31;;;8.18;47.84
67740;BME280;54536;50.090;14.420;2023-02-02T09:01:09;99459.50;;;8.14;48.18
67740;BME280;54536;50.090;14.420;2023-02-02T09:03:36;99468.56;;;8.21;47.41
67740;BME280;54536;50.090;14.420;2023-02-02T09:06:07;99459.50;;;8.03;47.61
67740;BME280;54536;50.090;14.420;2023-02-02T09:08:34;99462.47;;;8.10;47.83
67740;BME280;54536;50.090;14.420;2023-02-02T09:11:12;99461.91;;;8.17;47.55
67740;BME280;54536;50.090;14.420;2023-02-02T09:13:40;99465.22;;;8.19;47.81
67740;BME280;54536;50.090;14.420;2023-02-02T09:16:09;99468.78;;;8.18;48.13
67740;BME280;54536;50.090;14.420;2023-02-02T09:18:36;99469.47;;;8.20;47.51
67740;BME280;54536;50.090;14.420;2023-02-02T09:21:05;99478.31;;;8.19;48.10
67740;BME280;54536;50.090;14.420;2023-02-02T09:23:34;99473.78;;;8.21;47.77
67740;BME280;54536;50.090;14.420;2023-02-02T09:26:25;99478.91;;;8.23;48.27
67740;BME280;54536;50.090;14.420;2023-02-02T09:28:54;99484.97;;;8.24;48.31
67740;BME280;54536;50.090;14.420;2023-02-02T09:31:22;99487.81;;;8.20;47.85
67740;BME280;54536;50.090;14.420;2023-02-02T09:33:49;99487.81;;;8.20;48.02
67740;BME280;54536;50.090;14.420;2023-02-02T09:36:20;99483.31;;;8.11;47.77
67740;BME280;54536;50.090;14.420;2023-02-02T09:38:48;99490.94;;;8.26;48.51
67740;BME280;54536;50.090;14.420;2023-02-02T09:41:34;99492.41;;;8.41;48.21
67740;BME280;54536;50.090;14.420;2023-02-02T09:53:03;99500.94;;;8.32;48.26
67740;BME280;54536;50.090;14.420;2023-02-02T09:55:37;99493.53;;;8.37;47.17
67740;BME280;54536;50.090;14.420;2023-02-02T09:58:20;99499.28;;;8.42;47.37
67740;BME280;54536;50.090;14.420;2023-02-02T10:00:53;99510.59;;;8.42;48.10
67740;BME280;54536;50.090;14.420;2023-02-02T10:06:40;99513.34;;;8.41;48.31
67740;BME280;54536;50.090;14.420;2023-02-02T10:09:24;99514.41;;;8.50;47.91
67740;BME280;54536;50.090;14.420;2023-02-02T10:20:56;99522.50;;;8.58;48.29
67740;BME280;54536;50.090;14.420;2023-02-02T10:23:31;99523.22;;;8.49;48.84
67740;BME280;54536;50.090;14.420;2023-02-02T10:28:53;99518.94;;;8.70;47.68
67740;BME280;54536;50.090;14.420;2023-02-02T10:34:29;99509.63;;;8.66;47.92
67740;BME280;54536;50.090;14.420;2023-02-02T10:39:48;99510.94;;;8.83;46.73
67740;BME280;54536;50.090;14.420;2023-02-02T10:45:17;99522.81;;;8.98;46.79
67740;BME280;54536;50.090;14.420;2023-02-02T10:47:44;99510.50;;;8.99;46.01
67740;BME280;54536;50.090;14.420;2023-02-02T10:50:18;99519.19;;;9.10;46.46
67740;BME280;54536;50.090;14.420;2023-02-02T10:52:53;99505.59;;;9.17;45.73
67740;BME280;54536;50.090;14.420;2023-02-02T10:55:40;99512.50;;;9.18;45.32
67740;BME280;54536;50.090;14.420;2023-02-02T11:03:15;99524.31;;;9.44;44.46
67740;BME280;54536;50.090;14.420;2023-02-02T11:05:41;99511.81;;;9.69;44.52
67740;BME280;54536;50.090;14.420;2023-02-02T11:08:39;99501.28;;;9.90;43.76
67740;BME280;54536;50.090;14.420;2023-02-02T11:14:00;99513.69;;;10.08;43.63
67740;BME280;54536;50.090;14.420;2023-02-02T11:16:32;99512.06;;;10.07;43.28
67740;BME280;54536;50.090;14.420;2023-02-02T11:18:58;99510.94;;;10.10;43.53
67740;BME280;54536;50.090;14.420;2023-02-02T11:21:31;99511.53;;;10.14;42.79
67740;BME280;54536;50.090;14.420;2023-02-02T11:24:05;99516.31;;;10.29;41.82
67740;BME280;54536;50.090;14.420;2023-02-02T11:26:53;99513.72;;;10.39;42.57
67740;BME280;54536;50.090;14.420;2023-02-02T11:29:41;99514.66;;;10.69;41.95
67740;BME280;54536;50.090;14.420;2023-02-02T11:32:29;99513.09;;;10.47;41.75
67740;BME280;54536;50.090;14.420;2023-02-02T11:37:36;99511.41;;;10.46;42.14
67740;BME280;54536;50.090;14.420;2023-02-02T11:42:50;99506.47;;;11.41;39.65
67740;BME280;54536;50.090;14.420;2023-02-02T11:45:38;99502.56;;;11.75;38.79
67740;BME280;54536;50.090;14.420;2023-02-02T11:50:45;99510.69;;;10.84;40.46
67740;BME280;54536;50.090;14.420;2023-02-02T11:53:34;99515.81;;;10.76;40.65
67740;BME280;54536;50.090;14.420;2023-02-02T11:56:16;99517.28;;;10.69;40.68
67740;BME280;54536;50.090;14.420;2023-02-02T11:58:54;99519.38;;;10.65;40.48
67740;BME280;54536;50.090;14.420;2023-02-02T12:01:30;99518.16;;;10.69;41.60
67740;BME280;54536;50.090;14.420;2023-02-02T12:04:00;99525.56;;;10.54;41.31
67740;BME280;54536;50.090;14.420;2023-02-02T12:06:37;99520.38;;;10.34;41.73
67740;BME280;54536;50.090;14.420;2023-02-02T12:09:24;99535.59;;;10.40;41.48
67740;BME280;54536;50.090;14.420;2023-02-02T12:15:01;99531.72;;;10.34;41.54
67740;BME280;54536;50.090;14.420;2023-02-02T12:17:36;99521.91;;;10.46;41.63
67740;BME280;54536;50.090;14.420;2023-02-02T12:23:29;99517.19;;;10.40;42.39
67740;BME280;54536;50.090;14.420;2023-02-02T12:31:32;99526.84;;;10.08;43.86
67740;BME280;54536;50.090;14.420;2023-02-02T12:37:42;99512.41;;;10.24;42.76
67740;BME280;54536;50.090;14.420;2023-02-02T12:45:41;99521.00;;;10.26;42.39
67740;BME280;54536;50.090;14.420;2023-02-02T12:56:39;99525.53;;;10.45;41.60
67740;BME280;54536;50.090;14.420;2023-02-02T13:07:48;99519.44;;;10.23;42.28
67740;BME280;54536;50.090;14.420;2023-02-02T13:10:44;99532.25;;;10.17;42.33
67740;BME280;54536;50.090;14.420;2023-02-02T13:15:45;99529.00;;;10.03;42.68
67740;BME280;54536;50.090;14.420;2023-02-02T13:18:25;99536.31;;;10.00;42.65
67740;BME280;54536;50.090;14.420;2023-02-02T13:21:06;99544.34;;;9.98;42.17
67740;BME280;54536;50.090;14.420;2023-02-02T13:23:45;99534.63;;;9.68;43.09
67740;BME280;54536;50.090;14.420;2023-02-02T13:26:20;99551.94;;;9.80;43.11
67740;BME280;54536;50.090;14.420;2023-02-02T13:28:57;99542.81;;;9.75;43.14
67740;BME280;54536;50.090;14.420;2023-02-02T13:31:34;99547.34;;;9.73;43.54
67740;BME280;54536;50.090;14.420;2023-02-02T13:34:17;99556.94;;;9.83;42.89
67740;BME280;54536;50.090;14.420;2023-02-02T13:37:02;99553.75;;;9.80;43.27
67740;BME280;54536;50.090;14.420;2023-02-02T13:39:37;99561.25;;;9.84;43.70
67740;BME280;54536;50.090;14.420;2023-02-02T13:42:21;99558.16;;;9.79;43.27
67740;BME280;54536;50.090;14.420;2023-02-02T13:44:57;99560.06;;;9.77;43.96
67740;BME280;54536;50.090;14.420;2023-02-02T13:47:39;99559.50;;;9.74;43.41
67740;BME280;54536;50.090;14.420;2023-02-02T13:50:16;99575.50;;;9.71;42.90
67740;BME280;54536;50.090;14.420;2023-02-02T13:53:27;99574.59;;;9.60;43.30
67740;BME280;54536;50.090;14.420;2023-02-02T13:56:35;99585.59;;;9.54;43.21
67740;BME280;54536;50.090;14.420;2023-02-02T14:05:25;99589.81;;;9.46;43.70
67740;BME280;54536;50.090;14.420;2023-02-02T14:10:57;99601.34;;;9.54;43.95
67740;BME280;54536;50.090;14.420;2023-02-02T14:13:42;99603.88;;;9.56;43.55
67740;BME280;54536;50.090;14.420;2023-02-02T14:19:02;99613.53;;;9.55;43.88
67740;BME280;54536;50.090;14.420;2023-02-02T14:27:02;99617.47;;;9.50;44.59
67740;BME280;54536;50.090;14.420;2023-02-02T14:34:28;99628.28;;;9.35;44.55
67740;BME280;54536;50.090;14.420;2023-02-02T14:45:45;99656.78;;;9.18;44.40
67740;BME280;54536;50.090;14.420;2023-02-02T14:48:17;99660.47;;;9.26;44.24
67740;BME280;54536;50.090;14.420;2023-02-02T14:50:58;99669.53;;;9.33;45.69
67740;BME280;54536;50.090;14.420;2023-02-02T14:53:36;99668.56;;;9.34;44.52
67740;BME280;54536;50.090;14.420;2023-02-02T14:56:14;99674.81;;;9.22;45.59
67740;BME280;54536;50.090;14.420;2023-02-02T14:59:00;99673.13;;;9.32;44.98
67740;BME280;54536;50.090;14.420;2023-02-02T15:01:32;99686.81;;;9.25;45.43
67740;BME280;54536;50.090;14.420;2023-02-02T15:06:48;99693.50;;;9.18;45.35
67740;BME280;54536;50.090;14.420;2023-02-02T15:14:48;99714.53;;;9.06;45.64
67740;BME280;54536;50.090;14.420;2023-02-02T15:17:32;99711.19;;;9.16;46.46
67740;BME280;54536;50.090;14.420;2023-02-02T15:26:41;99735.88;;;9.13;46.31
67740;BME280;54536;50.090;14.420;2023-02-02T15:29:37;99731.09;;;9.07;46.65
67740;BME280;54536;50.090;14.420;2023-02-02T15:32:14;99744.44;;;9.15;46.90
67740;BME280;54536;50.090;14.420;2023-02-02T15:34:52;99750.16;;;9.20;46.01
67740;BME280;54536;50.090;14.420;2023-02-02T15:37:32;99756.25;;;9.09;47.19
67740;BME280;54536;50.090;14.420;2023-02-02T15:40:14;99749.78;;;9.02;46.35
67740;BME280;54536;50.090;14.420;2023-02-02T15:42:44;99757.78;;;8.89;46.96
67740;BME280;54536;50.090;14.420;2023-02-02T15:48:29;99788.63;;;8.86;46.65
67740;BME280;54536;50.090;14.420;2023-02-02T15:51:00;99793.75;;;8.87;47.05
67740;BME280;54536;50.090;14.420;2023-02-02T15:53:33;99801.16;;;8.94;47.02
67740;BME280;54536;50.090;14.420;2023-02-02T15:58:57;99808.66;;;8.87;47.70
67740;BME280;54536;50.090;14.420;2023-02-02T16:01:32;99814.94;;;8.73;47.67
67740;BME280;54536;50.090;14.420;2023-02-02T16:04:25;99817.66;;;8.72;48.40
67740;BME280;54536;50.090;14.420;2023-02-02T16:06:55;99811.47;;;8.73;48.05
67740;BME280;54536;50.090;14.420;2023-02-02T16:09:34;99813.72;;;8.66;47.84
67740;BME280;54536;50.090;14.420;2023-02-02T16:12:03;99815.94;;;8.59;48.70
67740;BME280;54536;50.090;14.420;2023-02-02T16:14:37;99822.97;;;8.59;48.33
67740;BME280;54536;50.090;14.420;2023-02-02T16:17:21;99825.00;;;8.55;48.20